Boone County Airport
KHRO : rendu visible

Aérodrome :











RETROUVEZ-NOUS SUR...

 
LOGIN :

S'inscrire | Disclaimer

   EN    FR    IT 

 









Légende :    VFR   VFR Marginal   IFR   IFR Intensif   IFR Très Intensif
Visi : 
Plafond : 
>= 8 km
>= 3000ft
5 à 8 km
1000 à 3000 ft
1500m à 5 km
500 à 1000 ft
800 à 1500m
200 à 500 ft
< 800m
< 200 ft
Symboles :   Orages  Brouillard  Fortes neiges  Fortes précipitations  Vent > 20 kt






- Altitude de l'aérodrome : 1365 ft
- Code IATA : HRO


KHRO - Boone County

DERNIER METAR :
  • 100753Z AUTO 32006KT 10SM CLR M02/M09 A3014 RMK AO2 SLP210 T10171094

METARs EXPIRÉS :
  • 100653Z AUTO 32007G15KT 10SM CLR M01/M08 A3013 RMK AO2 SLP204 T10111083
  • 100553Z AUTO 32009KT 10SM CLR M01/M08 A3011 RMK AO2 SLP199 T10061078 10050 21006 401721006 51029

TAF KHRO
Valide du 10 à 06h jusqu'au 11 à 06h UTC


100526Z 1006/1106 31014G20KT P6SM BKN120
FM101200 33006KT P6SM FEW050 BKN250



MET'MAP, la Météo Aéronautique d'un coup d'oeil ! - Copyright ORBIFLY Décembre 2007 - Disclaimer

ORBIFLY MET'MAP TEAM :

Programmation & Développement : Alexandra Zaïnal
Sur une idée originale de : Baudouin d'Aumeries
Assistance à la programmation : Marc-Olivier Méhu
Soutien technique & logistique : Manuel Goepfert

Contact : metmap@orbifly.com




SOURCES & CREDITS :

   NOAA       Earth
Advisory